sensor_id;sensor_type;location;lat;lon;timestamp;P1;durP1;ratioP1;P2;durP2;ratioP2
41739;SDS011;27422;52.444;13.300;2023-04-01T00:00:22;3.08;;;1.10;;
41739;SDS011;27422;52.444;13.300;2023-04-01T00:02:48;4.00;;;1.20;;
41739;SDS011;27422;52.444;13.300;2023-04-01T00:05:16;5.20;;;1.42;;
41739;SDS011;27422;52.444;13.300;2023-04-01T00:07:42;6.00;;;1.30;;
41739;SDS011;27422;52.444;13.300;2023-04-01T00:10:09;3.08;;;0.95;;
41739;SDS011;27422;52.444;13.300;2023-04-01T00:12:36;3.33;;;1.23;;
41739;SDS011;27422;52.444;13.300;2023-04-01T00:15:03;3.03;;;1.48;;
41739;SDS011;27422;52.444;13.300;2023-04-01T00:17:29;2.92;;;1.40;;
41739;SDS011;27422;52.444;13.300;2023-04-01T00:19:55;2.17;;;1.17;;
41739;SDS011;27422;52.444;13.300;2023-04-01T00:22:21;3.33;;;1.30;;
41739;SDS011;27422;52.444;13.300;2023-04-01T00:24:47;3.65;;;1.40;;
41739;SDS011;27422;52.444;13.300;2023-04-01T00:27:13;3.50;;;1.70;;
41739;SDS011;27422;52.444;13.300;2023-04-01T00:29:41;4.03;;;1.60;;
41739;SDS011;27422;52.444;13.300;2023-04-01T00:32:07;3.83;;;1.85;;
41739;SDS011;27422;52.444;13.300;2023-04-01T00:34:32;5.15;;;1.73;;
41739;SDS011;27422;52.444;13.300;2023-04-01T00:36:58;3.40;;;1.40;;
41739;SDS011;27422;52.444;13.300;2023-04-01T00:39:23;3.22;;;1.10;;
41739;SDS011;27422;52.444;13.300;2023-04-01T00:41:48;3.28;;;1.30;;
41739;SDS011;27422;52.444;13.300;2023-04-01T00:44:18;4.10;;;1.42;;
41739;SDS011;27422;52.444;13.300;2023-04-01T00:46:44;3.10;;;1.33;;
41739;SDS011;27422;52.444;13.300;2023-04-01T00:49:09;3.63;;;1.20;;
41739;SDS011;27422;52.444;13.300;2023-04-01T00:51:35;3.88;;;1.45;;
41739;SDS011;27422;52.444;13.300;2023-04-01T00:54:03;5.85;;;1.60;;
41739;SDS011;27422;52.444;13.300;2023-04-01T00:56:33;3.17;;;1.40;;
41739;SDS011;27422;52.444;13.300;2023-04-01T00:59:04;3.85;;;1.42;;
41739;SDS011;27422;52.444;13.300;2023-04-01T01:01:33;3.78;;;1.27;;
41739;SDS011;27422;52.444;13.300;2023-04-01T01:04:00;3.92;;;1.33;;
41739;SDS011;27422;52.444;13.300;2023-04-01T01:06:34;2.33;;;1.10;;
41739;SDS011;27422;52.444;13.300;2023-04-01T01:14:16;6.10;;;1.10;;
41739;SDS011;27422;52.444;13.300;2023-04-01T01:17:09;2.60;;;1.15;;
41739;SDS011;27422;52.444;13.300;2023-04-01T01:22:36;2.60;;;1.17;;
41739;SDS011;27422;52.444;13.300;2023-04-01T01:25:08;3.75;;;1.23;;
41739;SDS011;27422;52.444;13.300;2023-04-01T01:27:41;2.50;;;1.00;;
41739;SDS011;27422;52.444;13.300;2023-04-01T01:35:46;2.90;;;1.20;;
41739;SDS011;27422;52.444;13.300;2023-04-01T01:38:18;4.30;;;1.27;;
41739;SDS011;27422;52.444;13.300;2023-04-01T01:40:47;3.38;;;1.40;;
41739;SDS011;27422;52.444;13.300;2023-04-01T01:43:17;3.85;;;1.55;;
41739;SDS011;27422;52.444;13.300;2023-04-01T01:45:46;3.83;;;1.50;;
41739;SDS011;27422;52.444;13.300;2023-04-01T01:48:14;4.13;;;1.48;;
41739;SDS011;27422;52.444;13.300;2023-04-01T01:50:41;4.15;;;1.77;;
41739;SDS011;27422;52.444;13.300;2023-04-01T01:53:08;6.75;;;2.00;;
41739;SDS011;27422;52.444;13.300;2023-04-01T01:55:35;5.00;;;2.10;;
41739;SDS011;27422;52.444;13.300;2023-04-01T01:58:11;3.58;;;1.80;;
41739;SDS011;27422;52.444;13.300;2023-04-01T02:00:37;4.63;;;2.15;;
41739;SDS011;27422;52.444;13.300;2023-04-01T02:03:02;4.25;;;1.88;;
41739;SDS011;27422;52.444;13.300;2023-04-01T02:05:29;5.60;;;2.17;;
41739;SDS011;27422;52.444;13.300;2023-04-01T02:08:16;4.72;;;2.42;;
41739;SDS011;27422;52.444;13.300;2023-04-01T02:10:51;4.80;;;2.08;;
41739;SDS011;27422;52.444;13.300;2023-04-01T02:16:14;6.90;;;2.30;;
41739;SDS011;27422;52.444;13.300;2023-04-01T02:18:41;3.88;;;1.88;;
41739;SDS011;27422;52.444;13.300;2023-04-01T02:21:08;7.23;;;2.23;;
41739;SDS011;27422;52.444;13.300;2023-04-01T02:23:35;3.95;;;2.10;;
41739;SDS011;27422;52.444;13.300;2023-04-01T02:26:01;5.55;;;2.05;;
41739;SDS011;27422;52.444;13.300;2023-04-01T02:28:28;4.50;;;2.30;;
41739;SDS011;27422;52.444;13.300;2023-04-01T02:30:54;6.55;;;2.20;;
41739;SDS011;27422;52.444;13.300;2023-04-01T02:33:20;6.15;;;2.13;;
41739;SDS011;27422;52.444;13.300;2023-04-01T02:35:45;4.50;;;2.03;;
41739;SDS011;27422;52.444;13.300;2023-04-01T02:38:11;5.28;;;1.95;;
41739;SDS011;27422;52.444;13.300;2023-04-01T02:40:44;5.65;;;2.53;;
41739;SDS011;27422;52.444;13.300;2023-04-01T02:43:13;4.82;;;2.00;;
41739;SDS011;27422;52.444;13.300;2023-04-01T02:45:39;3.80;;;1.90;;
41739;SDS011;27422;52.444;13.300;2023-04-01T02:48:05;7.78;;;2.22;;
41739;SDS011;27422;52.444;13.300;2023-04-01T02:50:30;4.50;;;1.75;;
41739;SDS011;27422;52.444;13.300;2023-04-01T02:52:56;3.92;;;2.00;;
41739;SDS011;27422;52.444;13.300;2023-04-01T02:55:21;4.40;;;1.70;;
41739;SDS011;27422;52.444;13.300;2023-04-01T02:57:46;4.00;;;1.70;;
41739;SDS011;27422;52.444;13.300;2023-04-01T03:00:12;4.90;;;2.00;;
41739;SDS011;27422;52.444;13.300;2023-04-01T03:02:38;3.90;;;1.73;;
41739;SDS011;27422;52.444;13.300;2023-04-01T03:05:04;4.15;;;1.80;;
41739;SDS011;27422;52.444;13.300;2023-04-01T03:07:30;4.05;;;1.50;;
41739;SDS011;27422;52.444;13.300;2023-04-01T03:09:56;4.00;;;2.08;;
41739;SDS011;27422;52.444;13.300;2023-04-01T03:12:21;4.15;;;1.92;;
41739;SDS011;27422;52.444;13.300;2023-04-01T03:14:47;4.78;;;1.90;;
41739;SDS011;27422;52.444;13.300;2023-04-01T03:17:12;4.47;;;1.95;;
41739;SDS011;27422;52.444;13.300;2023-04-01T03:19:38;5.50;;;2.15;;
41739;SDS011;27422;52.444;13.300;2023-04-01T03:22:03;4.63;;;1.77;;
41739;SDS011;27422;52.444;13.300;2023-04-01T03:24:28;4.47;;;1.70;;
41739;SDS011;27422;52.444;13.300;2023-04-01T03:26:54;3.90;;;1.85;;
41739;SDS011;27422;52.444;13.300;2023-04-01T03:29:19;3.88;;;1.83;;
41739;SDS011;27422;52.444;13.300;2023-04-01T03:31:45;3.95;;;1.75;;
41739;SDS011;27422;52.444;13.300;2023-04-01T03:34:10;3.22;;;1.80;;
41739;SDS011;27422;52.444;13.300;2023-04-01T03:36:36;4.82;;;1.90;;
41739;SDS011;27422;52.444;13.300;2023-04-01T03:39:01;4.97;;;1.88;;
41739;SDS011;27422;52.444;13.300;2023-04-01T03:41:28;3.92;;;1.38;;
41739;SDS011;27422;52.444;13.300;2023-04-01T03:43:54;4.25;;;1.85;;
41739;SDS011;27422;52.444;13.300;2023-04-01T03:46:19;3.38;;;1.50;;
41739;SDS011;27422;52.444;13.300;2023-04-01T03:48:45;3.47;;;1.63;;
41739;SDS011;27422;52.444;13.300;2023-04-01T03:51:11;5.25;;;1.83;;
41739;SDS011;27422;52.444;13.300;2023-04-01T03:53:36;4.40;;;1.60;;
41739;SDS011;27422;52.444;13.300;2023-04-01T03:56:05;5.72;;;1.90;;
41739;SDS011;27422;52.444;13.300;2023-04-01T03:58:31;4.00;;;1.50;;
41739;SDS011;27422;52.444;13.300;2023-04-01T04:00:57;3.38;;;1.45;;
41739;SDS011;27422;52.444;13.300;2023-04-01T04:03:22;4.72;;;1.77;;
41739;SDS011;27422;52.444;13.300;2023-04-01T04:05:48;4.03;;;1.83;;
41739;SDS011;27422;52.444;13.300;2023-04-01T04:08:14;3.85;;;1.60;;
41739;SDS011;27422;52.444;13.300;2023-04-01T04:10:40;9.20;;;1.75;;
41739;SDS011;27422;52.444;13.300;2023-04-01T04:13:06;4.13;;;1.65;;
41739;SDS011;27422;52.444;13.300;2023-04-01T04:15:31;3.60;;;1.52;;
41739;SDS011;27422;52.444;13.300;2023-04-01T04:17:57;3.83;;;1.65;;
41739;SDS011;27422;52.444;13.300;2023-04-01T04:20:22;3.90;;;1.90;;
41739;SDS011;27422;52.444;13.300;2023-04-01T04:22:48;4.45;;;1.65;;
41739;SDS011;27422;52.444;13.300;2023-04-01T04:25:13;3.47;;;1.70;;
41739;SDS011;27422;52.444;13.300;2023-04-01T04:27:38;4.40;;;1.50;;
41739;SDS011;27422;52.444;13.300;2023-04-01T04:30:05;4.45;;;1.60;;
41739;SDS011;27422;52.444;13.300;2023-04-01T04:32:31;5.57;;;1.67;;
41739;SDS011;27422;52.444;13.300;2023-04-01T04:34:56;3.67;;;1.42;;
41739;SDS011;27422;52.444;13.300;2023-04-01T04:37:22;2.90;;;1.50;;
41739;SDS011;27422;52.444;13.300;2023-04-01T04:39:47;5.43;;;1.90;;
41739;SDS011;27422;52.444;13.300;2023-04-01T04:42:12;4.45;;;1.75;;
41739;SDS011;27422;52.444;13.300;2023-04-01T04:44:38;4.75;;;1.80;;
41739;SDS011;27422;52.444;13.300;2023-04-01T04:47:04;5.10;;;2.00;;
41739;SDS011;27422;52.444;13.300;2023-04-01T04:49:30;2.78;;;1.45;;
41739;SDS011;27422;52.444;13.300;2023-04-01T04:51:56;5.55;;;1.73;;
41739;SDS011;27422;52.444;13.300;2023-04-01T04:54:21;5.45;;;1.83;;
41739;SDS011;27422;52.444;13.300;2023-04-01T04:56:46;5.22;;;1.67;;
41739;SDS011;27422;52.444;13.300;2023-04-01T04:59:12;5.53;;;1.77;;
41739;SDS011;27422;52.444;13.300;2023-04-01T05:01:38;4.32;;;1.88;;
41739;SDS011;27422;52.444;13.300;2023-04-01T05:04:03;3.35;;;1.52;;
41739;SDS011;27422;52.444;13.300;2023-04-01T05:06:29;4.70;;;1.80;;
41739;SDS011;27422;52.444;13.300;2023-04-01T05:08:54;5.75;;;1.65;;
41739;SDS011;27422;52.444;13.300;2023-04-01T05:11:20;3.38;;;1.70;;
41739;SDS011;27422;52.444;13.300;2023-04-01T05:13:46;3.88;;;1.58;;
41739;SDS011;27422;52.444;13.300;2023-04-01T05:16:13;5.00;;;1.83;;
41739;SDS011;27422;52.444;13.300;2023-04-01T05:18:39;5.00;;;1.80;;
41739;SDS011;27422;52.444;13.300;2023-04-01T05:21:06;5.03;;;1.95;;
41739;SDS011;27422;52.444;13.300;2023-04-01T05:23:33;3.78;;;1.83;;
41739;SDS011;27422;52.444;13.300;2023-04-01T05:25:58;6.18;;;1.65;;
41739;SDS011;27422;52.444;13.300;2023-04-01T05:28:27;9.18;;;2.35;;
41739;SDS011;27422;52.444;13.300;2023-04-01T05:30:53;4.35;;;2.13;;
41739;SDS011;27422;52.444;13.300;2023-04-01T05:33:18;8.70;;;2.15;;
41739;SDS011;27422;52.444;13.300;2023-04-01T05:35:43;5.30;;;1.92;;
41739;SDS011;27422;52.444;13.300;2023-04-01T05:38:09;6.05;;;2.25;;
41739;SDS011;27422;52.444;13.300;2023-04-01T05:40:34;7.93;;;2.50;;
41739;SDS011;27422;52.444;13.300;2023-04-01T05:43:00;4.22;;;2.00;;
41739;SDS011;27422;52.444;13.300;2023-04-01T05:45:25;4.32;;;2.13;;
41739;SDS011;27422;52.444;13.300;2023-04-01T05:47:51;4.97;;;2.08;;
41739;SDS011;27422;52.444;13.300;2023-04-01T05:50:16;9.27;;;2.75;;
41739;SDS011;27422;52.444;13.300;2023-04-01T05:52:42;8.80;;;3.15;;
41739;SDS011;27422;52.444;13.300;2023-04-01T05:55:08;5.18;;;2.55;;
41739;SDS011;27422;52.444;13.300;2023-04-01T05:57:33;8.02;;;2.53;;
41739;SDS011;27422;52.444;13.300;2023-04-01T05:59:59;7.20;;;3.00;;
41739;SDS011;27422;52.444;13.300;2023-04-01T06:02:25;4.88;;;2.60;;
41739;SDS011;27422;52.444;13.300;2023-04-01T06:04:53;5.90;;;2.30;;
41739;SDS011;27422;52.444;13.300;2023-04-01T06:07:20;7.20;;;2.47;;
41739;SDS011;27422;52.444;13.300;2023-04-01T06:09:45;4.63;;;1.92;;
41739;SDS011;27422;52.444;13.300;2023-04-01T06:14:55;7.03;;;2.08;;
41739;SDS011;27422;52.444;13.300;2023-04-01T06:20:26;6.57;;;2.60;;
41739;SDS011;27422;52.444;13.300;2023-04-01T06:28:36;6.53;;;2.22;;
41739;SDS011;27422;52.444;13.300;2023-04-01T06:31:03;5.18;;;1.90;;
41739;SDS011;27422;52.444;13.300;2023-04-01T06:36:40;4.00;;;2.10;;
41739;SDS011;27422;52.444;13.300;2023-04-01T06:39:29;6.78;;;2.40;;
41739;SDS011;27422;52.444;13.300;2023-04-01T06:47:53;6.13;;;2.42;;
41739;SDS011;27422;52.444;13.300;2023-04-01T06:56:04;6.00;;;2.10;;
41739;SDS011;27422;52.444;13.300;2023-04-01T06:59:07;5.07;;;1.60;;
41739;SDS011;27422;52.444;13.300;2023-04-01T07:04:17;4.50;;;1.40;;
41739;SDS011;27422;52.444;13.300;2023-04-01T07:06:54;5.93;;;1.45;;
41739;SDS011;27422;52.444;13.300;2023-04-01T07:11:49;3.78;;;1.27;;
41739;SDS011;27422;52.444;13.300;2023-04-01T07:14:20;3.20;;;1.30;;
41739;SDS011;27422;52.444;13.300;2023-04-01T07:16:48;2.78;;;1.25;;
41739;SDS011;27422;52.444;13.300;2023-04-01T07:21:55;3.03;;;1.25;;
41739;SDS011;27422;52.444;13.300;2023-04-01T07:24:26;3.97;;;1.80;;
41739;SDS011;27422;52.444;13.300;2023-04-01T07:26:55;3.90;;;1.17;;
41739;SDS011;27422;52.444;13.300;2023-04-01T07:29:21;3.95;;;1.73;;
41739;SDS011;27422;52.444;13.300;2023-04-01T07:34:50;2.58;;;1.10;;
41739;SDS011;27422;52.444;13.300;2023-04-01T07:37:23;2.97;;;1.30;;
41739;SDS011;27422;52.444;13.300;2023-04-01T07:45:11;4.15;;;1.15;;
41739;SDS011;27422;52.444;13.300;2023-04-01T07:47:48;4.03;;;1.30;;
41739;SDS011;27422;52.444;13.300;2023-04-01T08:01:06;4.35;;;1.50;;
41739;SDS011;27422;52.444;13.300;2023-04-01T08:06:37;3.40;;;1.27;;
41739;SDS011;27422;52.444;13.300;2023-04-01T08:22:29;3.00;;;1.00;;
41739;SDS011;27422;52.444;13.300;2023-04-01T08:24:58;3.53;;;1.00;;
41739;SDS011;27422;52.444;13.300;2023-04-01T08:27:41;5.20;;;1.27;;
41739;SDS011;27422;52.444;13.300;2023-04-01T08:36:45;4.13;;;0.95;;
41739;SDS011;27422;52.444;13.300;2023-04-01T08:44:30;2.20;;;0.90;;
41739;SDS011;27422;52.444;13.300;2023-04-01T08:50:18;2.95;;;0.93;;
41739;SDS011;27422;52.444;13.300;2023-04-01T09:04:37;3.65;;;0.90;;
41739;SDS011;27422;52.444;13.300;2023-04-01T09:10:09;3.40;;;0.68;;
41739;SDS011;27422;52.444;13.300;2023-04-01T09:13:05;4.15;;;0.90;;
41739;SDS011;27422;52.444;13.300;2023-04-01T09:24:30;5.78;;;2.28;;
41739;SDS011;27422;52.444;13.300;2023-04-01T09:33:04;3.70;;;1.73;;
41739;SDS011;27422;52.444;13.300;2023-04-01T09:36:03;4.00;;;2.05;;
41739;SDS011;27422;52.444;13.300;2023-04-01T09:38:56;4.63;;;2.47;;
41739;SDS011;27422;52.444;13.300;2023-04-01T09:46:45;6.15;;;2.97;;
41739;SDS011;27422;52.444;13.300;2023-04-01T10:00:22;6.57;;;3.53;;
41739;SDS011;27422;52.444;13.300;2023-04-01T10:16:49;7.75;;;4.20;;
41739;SDS011;27422;52.444;13.300;2023-04-01T10:19:43;7.88;;;3.50;;
41739;SDS011;27422;52.444;13.300;2023-04-01T10:22:36;18.85;;;8.70;;
41739;SDS011;27422;52.444;13.300;2023-04-01T10:28:44;6.30;;;3.28;;
41739;SDS011;27422;52.444;13.300;2023-04-01T10:36:57;8.43;;;4.47;;
41739;SDS011;27422;52.444;13.300;2023-04-01T10:44:50;8.25;;;4.93;;
41739;SDS011;27422;52.444;13.300;2023-04-01T10:55:28;8.48;;;4.85;;
41739;SDS011;27422;52.444;13.300;2023-04-01T11:40:47;6.28;;;3.67;;
41739;SDS011;27422;52.444;13.300;2023-04-01T11:48:40;7.28;;;2.50;;
41739;SDS011;27422;52.444;13.300;2023-04-01T11:51:16;5.35;;;2.05;;
41739;SDS011;27422;52.444;13.300;2023-04-01T11:56:58;4.13;;;2.10;;
41739;SDS011;27422;52.444;13.300;2023-04-01T12:05:30;4.38;;;2.03;;
41739;SDS011;27422;52.444;13.300;2023-04-01T12:08:05;3.53;;;1.95;;
41739;SDS011;27422;52.444;13.300;2023-04-01T12:25:14;13.98;;;6.28;;
41739;SDS011;27422;52.444;13.300;2023-04-01T12:28:10;4.07;;;2.10;;
41739;SDS011;27422;52.444;13.300;2023-04-01T12:41:54;5.00;;;2.58;;
41739;SDS011;27422;52.444;13.300;2023-04-01T13:11:25;7.57;;;4.00;;
41739;SDS011;27422;52.444;13.300;2023-04-01T13:17:31;8.17;;;4.90;;
41739;SDS011;27422;52.444;13.300;2023-04-01T13:19:58;7.90;;;4.20;;
41739;SDS011;27422;52.444;13.300;2023-04-01T13:22:33;6.63;;;3.80;;
41739;SDS011;27422;52.444;13.300;2023-04-01T13:28:06;6.68;;;4.10;;
41739;SDS011;27422;52.444;13.300;2023-04-01T13:44:12;9.93;;;5.57;;
41739;SDS011;27422;52.444;13.300;2023-04-01T13:52:17;10.38;;;5.47;;
41739;SDS011;27422;52.444;13.300;2023-04-01T14:11:33;8.75;;;5.10;;
41739;SDS011;27422;52.444;13.300;2023-04-01T14:27:54;8.75;;;5.35;;
41739;SDS011;27422;52.444;13.300;2023-04-01T14:36:25;9.45;;;5.80;;
41739;SDS011;27422;52.444;13.300;2023-04-01T14:47:25;8.20;;;4.80;;
41739;SDS011;27422;52.444;13.300;2023-04-01T14:49:53;7.88;;;4.70;;
41739;SDS011;27422;52.444;13.300;2023-04-01T14:52:32;8.48;;;4.60;;
41739;SDS011;27422;52.444;13.300;2023-04-01T14:55:02;7.53;;;4.45;;
41739;SDS011;27422;52.444;13.300;2023-04-01T14:57:44;8.20;;;4.70;;
41739;SDS011;27422;52.444;13.300;2023-04-01T15:00:23;7.85;;;4.53;;
41739;SDS011;27422;52.444;13.300;2023-04-01T15:02:53;9.07;;;4.72;;
41739;SDS011;27422;52.444;13.300;2023-04-01T15:25:00;5.82;;;3.60;;
41739;SDS011;27422;52.444;13.300;2023-04-01T15:31:01;6.28;;;4.25;;
41739;SDS011;27422;52.444;13.300;2023-04-01T15:38:29;6.70;;;4.13;;
41739;SDS011;27422;52.444;13.300;2023-04-01T15:41:14;8.93;;;5.13;;
41739;SDS011;27422;52.444;13.300;2023-04-01T15:43:42;7.03;;;4.43;;
41739;SDS011;27422;52.444;13.300;2023-04-01T15:51:48;5.95;;;3.63;;
41739;SDS011;27422;52.444;13.300;2023-04-01T16:11:12;5.93;;;3.10;;
41739;SDS011;27422;52.444;13.300;2023-04-01T16:13:59;5.22;;;2.80;;
41739;SDS011;27422;52.444;13.300;2023-04-01T16:25:39;5.57;;;3.53;;
41739;SDS011;27422;52.444;13.300;2023-04-01T16:30:55;8.48;;;4.50;;
41739;SDS011;27422;52.444;13.300;2023-04-01T16:41:49;8.43;;;4.18;;
41739;SDS011;27422;52.444;13.300;2023-04-01T16:44:19;7.07;;;3.75;;
41739;SDS011;27422;52.444;13.300;2023-04-01T16:46:49;7.78;;;3.90;;
41739;SDS011;27422;52.444;13.300;2023-04-01T16:49:23;7.70;;;3.85;;
41739;SDS011;27422;52.444;13.300;2023-04-01T16:56:54;6.40;;;3.95;;
41739;SDS011;27422;52.444;13.300;2023-04-01T17:04:43;6.03;;;3.92;;
41739;SDS011;27422;52.444;13.300;2023-04-01T17:12:31;6.25;;;3.70;;
41739;SDS011;27422;52.444;13.300;2023-04-01T17:20:40;6.30;;;3.53;;
41739;SDS011;27422;52.444;13.300;2023-04-01T17:23:21;6.60;;;3.95;;
41739;SDS011;27422;52.444;13.300;2023-04-01T17:28:30;7.38;;;4.05;;
41739;SDS011;27422;52.444;13.300;2023-04-01T17:33:56;6.03;;;3.72;;
41739;SDS011;27422;52.444;13.300;2023-04-01T17:42:15;7.80;;;3.90;;
41739;SDS011;27422;52.444;13.300;2023-04-01T17:47:41;6.28;;;3.97;;
41739;SDS011;27422;52.444;13.300;2023-04-01T17:52:47;6.32;;;4.05;;
41739;SDS011;27422;52.444;13.300;2023-04-01T18:08:56;6.15;;;4.03;;
41739;SDS011;27422;52.444;13.300;2023-04-01T18:14:07;7.40;;;4.03;;
41739;SDS011;27422;52.444;13.300;2023-04-01T18:16:47;7.22;;;4.05;;
41739;SDS011;27422;52.444;13.300;2023-04-01T18:22:17;7.68;;;4.10;;
41739;SDS011;27422;52.444;13.300;2023-04-01T18:24:54;6.82;;;3.92;;
41739;SDS011;27422;52.444;13.300;2023-04-01T18:27:24;6.95;;;3.97;;
41739;SDS011;27422;52.444;13.300;2023-04-01T18:30:41;7.20;;;4.28;;
41739;SDS011;27422;52.444;13.300;2023-04-01T18:40:28;7.18;;;3.92;;
41739;SDS011;27422;52.444;13.300;2023-04-01T18:45:58;5.70;;;3.33;;
41739;SDS011;27422;52.444;13.300;2023-04-01T18:48:42;5.88;;;2.92;;
41739;SDS011;27422;52.444;13.300;2023-04-01T18:51:18;5.85;;;3.25;;
41739;SDS011;27422;52.444;13.300;2023-04-01T18:59:11;5.30;;;3.08;;
41739;SDS011;27422;52.444;13.300;2023-04-01T19:06:56;5.05;;;3.08;;
41739;SDS011;27422;52.444;13.300;2023-04-01T19:30:59;7.45;;;4.22;;
41739;SDS011;27422;52.444;13.300;2023-04-01T19:39:11;9.18;;;4.60;;
41739;SDS011;27422;52.444;13.300;2023-04-01T19:42:05;7.75;;;4.10;;
41739;SDS011;27422;52.444;13.300;2023-04-01T19:48:00;8.73;;;3.67;;
41739;SDS011;27422;52.444;13.300;2023-04-01T19:50:37;7.88;;;3.60;;
41739;SDS011;27422;52.444;13.300;2023-04-01T20:01:35;8.52;;;4.00;;
41739;SDS011;27422;52.444;13.300;2023-04-01T20:09:58;10.50;;;4.40;;
41739;SDS011;27422;52.444;13.300;2023-04-01T20:12:35;7.80;;;4.22;;
41739;SDS011;27422;52.444;13.300;2023-04-01T20:15:47;9.23;;;4.57;;
41739;SDS011;27422;52.444;13.300;2023-04-01T20:18:15;7.13;;;4.32;;
41739;SDS011;27422;52.444;13.300;2023-04-01T20:20:52;9.23;;;4.18;;
41739;SDS011;27422;52.444;13.300;2023-04-01T20:23:30;8.30;;;4.43;;
41739;SDS011;27422;52.444;13.300;2023-04-01T20:26:21;14.25;;;5.47;;
41739;SDS011;27422;52.444;13.300;2023-04-01T20:29:27;11.13;;;5.93;;
41739;SDS011;27422;52.444;13.300;2023-04-01T20:31:43;8.27;;;4.53;;
41739;SDS011;27422;52.444;13.300;2023-04-01T20:48:18;8.13;;;4.45;;
41739;SDS011;27422;52.444;13.300;2023-04-01T20:51:03;8.45;;;4.90;;
41739;SDS011;27422;52.444;13.300;2023-04-01T20:58:58;7.10;;;4.20;;
41739;SDS011;27422;52.444;13.300;2023-04-01T21:01:51;9.00;;;3.90;;
41739;SDS011;27422;52.444;13.300;2023-04-01T21:07:20;8.18;;;4.20;;
41739;SDS011;27422;52.444;13.300;2023-04-01T21:12:37;8.23;;;4.25;;
41739;SDS011;27422;52.444;13.300;2023-04-01T21:15:12;7.70;;;4.05;;
41739;SDS011;27422;52.444;13.300;2023-04-01T21:23:09;7.97;;;3.22;;
41739;SDS011;27422;52.444;13.300;2023-04-01T21:25:59;6.78;;;3.50;;
41739;SDS011;27422;52.444;13.300;2023-04-01T21:45:12;5.50;;;3.00;;
41739;SDS011;27422;52.444;13.300;2023-04-01T22:01:29;5.57;;;2.90;;
41739;SDS011;27422;52.444;13.300;2023-04-01T22:07:35;4.63;;;2.45;;
41739;SDS011;27422;52.444;13.300;2023-04-01T22:15:15;6.70;;;2.88;;
41739;SDS011;27422;52.444;13.300;2023-04-01T22:17:50;6.50;;;2.97;;
41739;SDS011;27422;52.444;13.300;2023-04-01T22:24:16;6.28;;;2.75;;
41739;SDS011;27422;52.444;13.300;2023-04-01T22:26:35;5.75;;;2.78;;
41739;SDS011;27422;52.444;13.300;2023-04-01T22:29:47;7.00;;;2.85;;
41739;SDS011;27422;52.444;13.300;2023-04-01T22:31:57;5.55;;;2.75;;
41739;SDS011;27422;52.444;13.300;2023-04-01T22:34:29;7.15;;;3.22;;
41739;SDS011;27422;52.444;13.300;2023-04-01T22:37:07;5.45;;;2.60;;
41739;SDS011;27422;52.444;13.300;2023-04-01T22:39:43;5.25;;;2.55;;
41739;SDS011;27422;52.444;13.300;2023-04-01T22:42:25;7.82;;;3.00;;
41739;SDS011;27422;52.444;13.300;2023-04-01T22:50:28;6.10;;;3.00;;
41739;SDS011;27422;52.444;13.300;2023-04-01T22:53:07;4.95;;;2.33;;
41739;SDS011;27422;52.444;13.300;2023-04-01T22:55:38;4.78;;;2.42;;
41739;SDS011;27422;52.444;13.300;2023-04-01T22:58:07;5.88;;;2.55;;
41739;SDS011;27422;52.444;13.300;2023-04-01T23:06:05;5.07;;;2.17;;
41739;SDS011;27422;52.444;13.300;2023-04-01T23:08:53;7.30;;;2.17;;
41739;SDS011;27422;52.444;13.300;2023-04-01T23:23:19;4.95;;;2.50;;
41739;SDS011;27422;52.444;13.300;2023-04-01T23:40:50;4.70;;;2.67;;
41739;SDS011;27422;52.444;13.300;2023-04-01T23:46:02;5.47;;;2.90;;
41739;SDS011;27422;52.444;13.300;2023-04-01T23:48:36;5.05;;;2.67;;
41739;SDS011;27422;52.444;13.300;2023-04-01T23:51:05;5.50;;;2.40;;
41739;SDS011;27422;52.444;13.300;2023-04-01T23:53:44;6.78;;;2.40;;
41739;SDS011;27422;52.444;13.300;2023-04-01T23:56:10;4.57;;;2.05;;
41739;SDS011;27422;52.444;13.300;2023-04-01T23:58:43;4.85;;;2.17;;
